createdAt,value
2023-04-12T00:02:01.372Z,10.29
2023-04-12T00:04:30.347Z,10.27
2023-04-12T00:07:01.342Z,10.26
2023-04-12T00:09:32.532Z,10.24
2023-04-12T00:12:02.079Z,10.23
2023-04-12T00:14:31.272Z,10.23
2023-04-12T00:17:02.028Z,10.22
2023-04-12T00:19:31.291Z,10.22
2023-04-12T00:22:04.963Z,10.20
2023-04-12T00:24:33.904Z,10.20
2023-04-12T00:27:02.652Z,10.19
2023-04-12T00:29:37.394Z,10.19
2023-04-12T00:32:07.066Z,10.18
2023-04-12T00:34:35.815Z,10.18
2023-04-12T00:37:04.991Z,10.18
2023-04-12T00:39:33.362Z,10.18
2023-04-12T00:42:09.166Z,10.18
2023-04-12T00:44:37.549Z,10.17
2023-04-12T00:47:07.102Z,10.15
2023-04-12T00:49:37.978Z,10.15
2023-04-12T00:52:08.782Z,10.15
2023-04-12T00:54:42.649Z,10.15
2023-04-12T00:57:13.679Z,10.14
2023-04-12T00:59:42.162Z,10.13
2023-04-12T01:02:10.631Z,10.13
2023-04-12T01:04:44.301Z,10.13
2023-04-12T01:07:45.230Z,10.13
2023-04-12T01:10:48.092Z,10.12
2023-04-12T01:13:31.386Z,10.11
2023-04-12T01:16:22.992Z,10.10
2023-04-12T01:18:53.129Z,10.08
2023-04-12T01:21:38.039Z,10.08
2023-04-12T01:24:39.132Z,10.09
2023-04-12T01:27:11.409Z,10.08
2023-04-12T01:29:43.467Z,10.09
2023-04-12T01:32:11.943Z,10.09
2023-04-12T01:34:41.047Z,10.10
2023-04-12T01:37:09.492Z,10.09
2023-04-12T01:39:39.244Z,10.09
2023-04-12T01:42:07.682Z,10.09
2023-04-12T01:44:36.566Z,10.09
2023-04-12T01:47:05.477Z,10.09
2023-04-12T01:49:37.151Z,10.09
2023-04-12T01:52:11.284Z,10.09
2023-04-12T01:54:41.857Z,10.10
2023-04-12T01:57:10.906Z,10.09
2023-04-12T01:59:40.895Z,10.11
2023-04-12T02:02:13.733Z,10.11
2023-04-12T02:04:42.844Z,10.11
2023-04-12T02:07:11.850Z,10.09
2023-04-12T02:09:52.336Z,10.09
2023-04-12T02:12:23.352Z,10.09
2023-04-12T02:14:52.384Z,10.09
2023-04-12T02:17:25.596Z,10.09
2023-04-12T02:19:54.292Z,10.09
2023-04-12T02:22:22.676Z,10.08
2023-04-12T02:24:52.380Z,10.08
2023-04-12T02:27:21.402Z,10.07
2023-04-12T02:29:49.740Z,10.07
2023-04-12T02:32:21.176Z,10.07
2023-04-12T02:34:51.629Z,10.07
2023-04-12T02:37:31.078Z,10.07
2023-04-12T02:40:02.763Z,10.07
2023-04-12T02:42:32.789Z,10.08
2023-04-12T02:45:01.350Z,10.08
2023-04-12T02:47:33.387Z,10.08
2023-04-12T02:50:02.591Z,10.07
2023-04-12T02:52:33.350Z,10.05
2023-04-12T02:55:07.465Z,10.04
2023-04-12T02:57:36.238Z,10.03
2023-04-12T03:00:12.519Z,10.02
2023-04-12T03:03:12.941Z,9.99
2023-04-12T03:05:42.792Z,9.97
2023-04-12T03:08:11.597Z,9.96
2023-04-12T03:10:45.492Z,9.94
2023-04-12T03:13:14.349Z,9.93
2023-04-12T03:15:48.314Z,9.92
2023-04-12T03:18:17.455Z,9.90
2023-04-12T03:20:48.846Z,9.89
2023-04-12T03:23:18.313Z,9.88
2023-04-12T03:25:54.550Z,9.87
2023-04-12T03:28:49.719Z,9.87
2023-04-12T03:31:21.817Z,9.85
2023-04-12T03:33:52.534Z,9.84
2023-04-12T03:36:23.947Z,9.83
2023-04-12T03:39:00.033Z,9.81
2023-04-12T03:41:29.897Z,9.80
2023-04-12T03:43:59.449Z,9.78
2023-04-12T03:46:29.186Z,9.77
2023-04-12T03:48:59.097Z,9.75
2023-04-12T03:51:31.083Z,9.74
2023-04-12T03:54:04.756Z,9.73
2023-04-12T03:56:55.074Z,9.73
2023-04-12T03:59:26.996Z,9.72
2023-04-12T04:01:56.827Z,9.71
2023-04-12T04:04:25.765Z,9.69
2023-04-12T04:06:57.845Z,9.69
2023-04-12T04:09:27.285Z,9.68
2023-04-12T04:11:56.162Z,9.68
2023-04-12T04:14:25.044Z,9.68
2023-04-12T04:16:54.276Z,9.68
2023-04-12T04:19:28.987Z,9.69
2023-04-12T04:21:58.119Z,9.69
2023-04-12T04:24:28.013Z,9.70
2023-04-12T04:27:02.243Z,9.70
2023-04-12T04:29:31.847Z,9.71
2023-04-12T04:32:01.716Z,9.72
2023-04-12T04:34:32.120Z,9.72
2023-04-12T04:37:09.908Z,9.73
2023-04-12T04:39:46.939Z,9.75
2023-04-12T04:42:17.162Z,9.76
2023-04-12T04:45:03.746Z,9.77
2023-04-12T04:47:36.932Z,9.77
2023-04-12T04:50:11.276Z,9.77
2023-04-12T04:52:41.264Z,9.78
2023-04-12T04:55:13.291Z,9.80
2023-04-12T04:57:47.646Z,9.81
2023-04-12T05:00:16.882Z,9.82
2023-04-12T05:02:48.582Z,9.83
2023-04-12T05:05:24.152Z,9.84
2023-04-12T05:07:59.564Z,9.85
2023-04-12T05:10:29.633Z,9.85
2023-04-12T05:12:58.795Z,9.86
2023-04-12T05:15:27.266Z,9.87
2023-04-12T05:17:55.780Z,9.89
2023-04-12T05:20:25.106Z,9.90
2023-04-12T05:22:54.330Z,9.91
2023-04-12T05:25:22.768Z,9.91
2023-04-12T05:28:00.936Z,9.92
2023-04-12T05:30:29.897Z,9.92
2023-04-12T05:32:59.098Z,9.92
2023-04-12T05:35:29.439Z,9.93
2023-04-12T05:38:00.480Z,9.93
2023-04-12T05:40:31.871Z,9.95
2023-04-12T05:43:00.440Z,9.96
2023-04-12T05:45:32.551Z,9.98
2023-04-12T05:48:02.200Z,10.00
2023-04-12T05:50:31.308Z,10.01
2023-04-12T05:53:03.211Z,10.03
2023-04-12T05:55:34.898Z,10.06
2023-04-12T05:58:04.462Z,10.10
2023-04-12T06:00:35.945Z,10.13
2023-04-12T06:03:05.493Z,10.16
2023-04-12T06:05:36.794Z,10.19
2023-04-12T06:08:06.572Z,10.22
2023-04-12T06:10:35.589Z,10.26
2023-04-12T06:13:08.880Z,10.30
2023-04-12T06:15:38.753Z,10.34
2023-04-12T06:18:08.122Z,10.38
2023-04-12T06:20:43.837Z,10.43
2023-04-12T06:23:13.092Z,10.48
2023-04-12T06:25:42.319Z,10.52
2023-04-12T06:28:14.572Z,10.57
2023-04-12T06:30:49.535Z,10.61
2023-04-12T06:33:17.933Z,10.63
2023-04-12T06:35:50.006Z,10.65
2023-04-12T06:38:19.162Z,10.67
2023-04-12T06:40:49.154Z,10.70
2023-04-12T06:43:22.542Z,10.74
2023-04-12T06:45:50.975Z,10.76
2023-04-12T06:48:20.672Z,10.76
2023-04-12T06:50:49.250Z,10.79
2023-04-12T06:53:23.138Z,10.81
2023-04-12T06:55:54.039Z,10.82
2023-04-12T06:58:22.571Z,10.85
2023-04-12T07:00:53.144Z,10.87
2023-04-12T07:03:24.599Z,10.87
2023-04-12T07:05:55.959Z,10.87
2023-04-12T07:08:24.311Z,10.88
2023-04-12T07:10:56.000Z,10.88
2023-04-12T07:13:25.424Z,10.88
2023-04-12T07:16:01.453Z,10.88
2023-04-12T07:18:32.431Z,10.87
2023-04-12T07:21:04.847Z,10.89
2023-04-12T07:23:33.300Z,10.90
2023-04-12T07:26:02.459Z,10.90
2023-04-12T07:28:36.010Z,10.91
2023-04-12T07:31:08.011Z,10.91
2023-04-12T07:33:38.794Z,10.92
2023-04-12T07:36:08.945Z,10.94
2023-04-12T07:38:37.831Z,10.96
2023-04-12T07:41:08.181Z,10.97
2023-04-12T07:43:37.069Z,10.97
2023-04-12T07:46:08.945Z,10.96
2023-04-12T07:48:40.247Z,10.95
2023-04-12T07:51:09.306Z,10.94
2023-04-12T07:53:37.586Z,10.94
2023-04-12T07:56:07.221Z,10.94
2023-04-12T07:58:35.828Z,10.94
2023-04-12T08:01:12.542Z,10.95
2023-04-12T08:03:41.448Z,10.95
2023-04-12T08:06:10.472Z,10.95
2023-04-12T08:08:39.407Z,10.93
2023-04-12T08:11:07.843Z,10.92
2023-04-12T08:13:36.272Z,10.94
2023-04-12T08:16:05.460Z,10.94
2023-04-12T08:18:36.020Z,10.96
2023-04-12T08:21:04.451Z,10.97
2023-04-12T08:23:40.277Z,10.98
2023-04-12T08:26:09.560Z,11.02
2023-04-12T08:28:39.835Z,11.04
2023-04-12T08:31:08.768Z,11.06
2023-04-12T08:33:37.282Z,11.07
2023-04-12T08:36:06.341Z,11.08
2023-04-12T08:38:45.805Z,11.07
2023-04-12T08:41:15.552Z,11.07
2023-04-12T08:43:46.132Z,11.08
2023-04-12T08:46:16.108Z,11.10
2023-04-12T08:48:46.495Z,11.10
2023-04-12T08:51:16.697Z,11.09
2023-04-12T08:53:45.090Z,11.11
2023-04-12T08:56:14.655Z,11.13
2023-04-12T08:58:46.219Z,11.16
2023-04-12T09:01:15.956Z,11.17
2023-04-12T09:03:45.026Z,11.16
2023-04-12T09:06:13.708Z,11.14
2023-04-12T09:08:52.847Z,11.13
2023-04-12T09:11:31.209Z,11.13
2023-04-12T09:14:01.559Z,11.11
2023-04-12T09:16:41.516Z,11.09
2023-04-12T09:19:12.719Z,11.04
2023-04-12T09:21:55.346Z,11.00
2023-04-12T09:24:24.568Z,10.96
2023-04-12T09:27:03.088Z,10.92
2023-04-12T09:29:33.103Z,10.88
2023-04-12T09:32:02.874Z,10.86
2023-04-12T09:34:32.163Z,10.86
2023-04-12T09:37:00.672Z,10.85
2023-04-12T09:39:33.235Z,10.85
2023-04-12T09:42:17.978Z,10.85
2023-04-12T09:44:57.685Z,10.86
2023-04-12T09:47:39.611Z,10.87
2023-04-12T09:50:09.977Z,10.86
2023-04-12T09:52:43.875Z,10.86
2023-04-12T09:55:12.951Z,10.88
2023-04-12T09:57:42.595Z,10.90
2023-04-12T10:00:19.154Z,10.95
2023-04-12T10:02:51.835Z,10.99
2023-04-12T10:05:22.393Z,11.02
2023-04-12T10:07:51.505Z,11.03
2023-04-12T10:10:20.792Z,11.05
2023-04-12T10:12:49.629Z,11.07
2023-04-12T10:15:18.839Z,11.08
2023-04-12T10:17:53.554Z,11.10
2023-04-12T10:20:24.035Z,11.10
2023-04-12T10:22:53.519Z,11.10
2023-04-12T10:25:25.966Z,11.09
2023-04-12T10:27:54.725Z,11.12
2023-04-12T10:30:28.572Z,11.15
2023-04-12T10:33:18.145Z,11.17
2023-04-12T10:35:57.770Z,11.17
2023-04-12T10:38:33.659Z,11.18
2023-04-12T10:41:11.703Z,11.20
2023-04-12T10:43:44.177Z,11.23
2023-04-12T10:46:41.092Z,11.26
2023-04-12T10:49:14.227Z,11.31
2023-04-12T10:52:02.894Z,11.35
2023-04-12T10:54:36.881Z,11.37
2023-04-12T10:57:06.747Z,11.37
2023-04-12T10:59:52.770Z,11.37
2023-04-12T11:02:22.233Z,11.36
2023-04-12T11:05:10.531Z,11.36
2023-04-12T11:07:59.446Z,11.37
2023-04-12T11:10:50.629Z,11.37
2023-04-12T11:13:26.717Z,11.38
2023-04-12T11:15:58.044Z,11.40
2023-04-12T11:18:28.450Z,11.42
2023-04-12T11:20:58.024Z,11.44
2023-04-12T11:23:40.895Z,11.46
2023-04-12T11:26:10.929Z,11.46
2023-04-12T11:28:39.624Z,11.45
2023-04-12T11:31:08.724Z,11.47
2023-04-12T11:33:38.736Z,11.50
2023-04-12T11:36:14.167Z,11.52
2023-04-12T11:38:43.144Z,11.53
2023-04-12T11:41:11.756Z,11.55
2023-04-12T11:43:40.504Z,11.57
2023-04-12T11:46:09.163Z,11.57
2023-04-12T11:48:39.049Z,11.56
2023-04-12T11:51:25.394Z,11.57
2023-04-12T11:53:55.779Z,11.57
2023-04-12T11:56:24.456Z,11.57
2023-04-12T11:58:52.806Z,11.57
2023-04-12T12:01:21.361Z,11.56
2023-04-12T12:03:51.138Z,11.53
2023-04-12T12:06:19.902Z,11.52
2023-04-12T12:08:51.752Z,11.51
2023-04-12T12:11:21.751Z,11.49
2023-04-12T12:13:54.711Z,11.47
2023-04-12T12:16:28.037Z,11.46
2023-04-12T12:18:59.156Z,11.44
2023-04-12T12:21:28.759Z,11.43
2023-04-12T12:23:57.619Z,11.42
2023-04-12T12:26:28.542Z,11.42
2023-04-12T12:28:57.864Z,11.42
2023-04-12T12:31:28.641Z,11.40
2023-04-12T12:33:58.405Z,11.39
2023-04-12T12:36:33.914Z,11.39
2023-04-12T12:39:12.845Z,11.38
2023-04-12T12:41:41.709Z,11.39
2023-04-12T12:44:15.734Z,11.41
2023-04-12T12:46:53.571Z,11.43
2023-04-12T12:49:25.550Z,11.47
2023-04-12T12:51:55.036Z,11.50
2023-04-12T12:54:39.408Z,11.55
2023-04-12T12:57:09.478Z,11.59
2023-04-12T12:59:38.366Z,11.66
2023-04-12T13:02:07.976Z,11.68
2023-04-12T13:04:39.433Z,11.71
2023-04-12T13:07:09.087Z,11.75
2023-04-12T13:09:37.784Z,11.78
2023-04-12T13:12:11.875Z,11.81
2023-04-12T13:14:42.282Z,11.84
2023-04-12T13:17:10.897Z,11.86
2023-04-12T13:19:48.403Z,11.89
2023-04-12T13:22:18.294Z,11.94
2023-04-12T13:24:46.991Z,12.01
2023-04-12T13:27:22.087Z,12.09
2023-04-12T13:29:51.320Z,12.18
2023-04-12T13:32:19.864Z,12.28
2023-04-12T13:34:48.477Z,12.35
2023-04-12T13:37:17.076Z,12.40
2023-04-12T13:39:46.961Z,12.45
2023-04-12T13:42:15.372Z,12.49
2023-04-12T13:44:43.929Z,12.53
2023-04-12T13:47:18.376Z,12.58
2023-04-12T13:49:47.518Z,12.61
2023-04-12T13:52:16.050Z,12.65
2023-04-12T13:54:47.711Z,12.67
2023-04-12T13:57:16.524Z,12.67
2023-04-12T13:59:50.932Z,12.67
2023-04-12T14:02:19.410Z,12.64
2023-04-12T14:04:52.884Z,12.64
2023-04-12T14:07:21.816Z,12.64
2023-04-12T14:09:51.108Z,12.64
2023-04-12T14:12:19.348Z,12.63
2023-04-12T14:14:48.132Z,12.63
2023-04-12T14:17:16.669Z,12.62
2023-04-12T14:19:45.355Z,12.61
2023-04-12T14:22:13.836Z,12.59
2023-04-12T14:24:42.179Z,12.54
2023-04-12T14:27:11.472Z,12.51
2023-04-12T14:29:40.019Z,12.47
2023-04-12T14:32:08.539Z,12.45
2023-04-12T14:34:38.177Z,12.44
2023-04-12T14:37:06.602Z,12.44
2023-04-12T14:39:36.538Z,12.43
2023-04-12T14:42:05.977Z,12.43
2023-04-12T14:44:34.443Z,12.42
2023-04-12T14:47:02.906Z,12.40
2023-04-12T14:49:33.170Z,12.38
2023-04-12T14:52:06.792Z,12.38
2023-04-12T14:54:36.568Z,12.37
2023-04-12T14:57:05.215Z,12.36
2023-04-12T14:59:41.509Z,12.35
2023-04-12T15:02:10.209Z,12.35
2023-04-12T15:04:39.031Z,12.35
2023-04-12T15:07:08.840Z,12.36
2023-04-12T15:09:38.815Z,12.34
2023-04-12T15:12:08.561Z,12.28
2023-04-12T15:14:39.102Z,12.20
2023-04-12T15:17:11.455Z,12.10
2023-04-12T15:19:39.829Z,12.01
2023-04-12T15:22:08.270Z,11.90
2023-04-12T15:24:38.345Z,11.82
2023-04-12T15:27:08.068Z,11.75
2023-04-12T15:29:36.808Z,11.70
2023-04-12T15:32:05.441Z,11.64
2023-04-12T15:34:35.298Z,11.56
2023-04-12T15:37:03.709Z,11.50
2023-04-12T15:39:36.711Z,11.44
2023-04-12T15:42:06.181Z,11.39
2023-04-12T15:44:34.927Z,11.33
2023-04-12T15:47:10.941Z,11.29
2023-04-12T15:49:40.504Z,11.27
2023-04-12T15:52:09.259Z,11.26
2023-04-12T15:54:43.541Z,11.26
2023-04-12T15:57:12.736Z,11.26
2023-04-12T15:59:42.185Z,11.26
2023-04-12T16:02:12.644Z,11.27
2023-04-12T16:04:43.269Z,11.27
2023-04-12T16:07:11.869Z,11.27
2023-04-12T16:09:41.206Z,11.25
2023-04-12T16:12:10.733Z,11.22
2023-04-12T16:14:39.650Z,11.19
2023-04-12T16:17:08.803Z,11.16
2023-04-12T16:19:37.808Z,11.14
2023-04-12T16:22:06.500Z,11.14
2023-04-12T16:24:37.861Z,11.13
2023-04-12T16:27:07.300Z,11.13
2023-04-12T16:29:35.802Z,11.13
2023-04-12T16:32:05.580Z,11.13
2023-04-12T16:34:36.245Z,11.13
2023-04-12T16:37:05.532Z,11.12
2023-04-12T16:39:35.390Z,11.11
2023-04-12T16:42:06.307Z,11.09
2023-04-12T16:44:35.251Z,11.08
2023-04-12T16:47:04.253Z,11.08
2023-04-12T16:49:33.148Z,11.07
2023-04-12T16:52:01.849Z,11.07
2023-04-12T16:54:34.076Z,11.06
2023-04-12T16:57:02.943Z,11.05
2023-04-12T16:59:34.649Z,11.03
2023-04-12T17:02:03.052Z,11.02
2023-04-12T17:04:32.101Z,11.02
2023-04-12T17:07:02.557Z,11.02
2023-04-12T17:09:31.312Z,11.02
2023-04-12T17:12:00.653Z,11.01
2023-04-12T17:14:29.843Z,11.01
2023-04-12T17:17:06.634Z,11.01
2023-04-12T17:19:36.048Z,11.01
2023-04-12T17:22:04.703Z,11.03
2023-04-12T17:24:36.451Z,11.04
2023-04-12T17:27:05.625Z,11.05
2023-04-12T17:29:34.244Z,11.06
2023-04-12T17:32:04.445Z,11.08
2023-04-12T17:34:34.016Z,11.09
2023-04-12T17:37:02.494Z,11.12
2023-04-12T17:39:33.037Z,11.13
2023-04-12T17:42:01.494Z,11.13
2023-04-12T17:44:30.819Z,11.14
2023-04-12T17:46:59.195Z,11.14
2023-04-12T17:49:27.598Z,11.13
2023-04-12T17:51:55.939Z,11.12
2023-04-12T17:54:24.870Z,11.11
2023-04-12T17:56:53.537Z,11.11
2023-04-12T17:59:22.336Z,11.10
2023-04-12T18:01:52.976Z,11.10
2023-04-12T18:04:22.353Z,11.10
2023-04-12T18:06:50.721Z,11.10
2023-04-12T18:09:20.286Z,11.10
2023-04-12T18:11:48.854Z,11.11
2023-04-12T18:14:17.510Z,11.12
2023-04-12T18:16:48.284Z,11.14
2023-04-12T18:19:18.973Z,11.16
2023-04-12T18:21:48.592Z,11.17
2023-04-12T18:24:17.692Z,11.18
2023-04-12T18:26:47.776Z,11.18
2023-04-12T18:29:17.818Z,11.19
2023-04-12T18:31:46.437Z,11.19
2023-04-12T18:34:14.941Z,11.20
2023-04-12T18:36:44.362Z,11.17
2023-04-12T18:39:12.892Z,11.09
2023-04-12T18:41:41.244Z,10.98
2023-04-12T18:44:09.909Z,10.83
2023-04-12T18:46:40.099Z,10.69
2023-04-12T18:49:09.299Z,10.56
2023-04-12T18:51:38.584Z,10.42
2023-04-12T18:54:11.667Z,10.31
2023-04-12T18:56:42.591Z,10.20
2023-04-12T18:59:17.564Z,10.12
2023-04-12T19:01:48.779Z,10.06
2023-04-12T19:04:18.365Z,10.00
2023-04-12T19:06:47.445Z,9.95
2023-04-12T19:09:16.034Z,9.90
2023-04-12T19:11:44.457Z,9.86
2023-04-12T19:14:13.238Z,9.82
2023-04-12T19:16:41.946Z,9.80
2023-04-12T19:19:12.530Z,9.79
2023-04-12T19:21:41.729Z,9.77
2023-04-12T19:24:10.472Z,9.76
2023-04-12T19:26:46.341Z,9.73
2023-04-12T19:29:18.897Z,9.71
2023-04-12T19:31:49.310Z,9.68
2023-04-12T19:34:18.598Z,9.64
2023-04-12T19:36:47.738Z,9.61
2023-04-12T19:39:18.325Z,9.61
2023-04-12T19:41:48.734Z,9.59
2023-04-12T19:44:17.630Z,9.58
2023-04-12T19:46:46.918Z,9.57
2023-04-12T19:49:15.221Z,9.55
2023-04-12T19:51:43.579Z,9.54
2023-04-12T19:54:12.214Z,9.54
2023-04-12T19:56:40.719Z,9.54
2023-04-12T19:59:10.903Z,9.53
2023-04-12T20:01:48.622Z,9.51
2023-04-12T20:04:20.229Z,9.48
2023-04-12T20:06:50.169Z,9.46
2023-04-12T20:09:18.817Z,9.45
2023-04-12T20:11:47.294Z,9.44
2023-04-12T20:14:16.055Z,9.42
2023-04-12T20:16:45.557Z,9.39
2023-04-12T20:19:13.986Z,9.37
2023-04-12T20:21:44.262Z,9.35
2023-04-12T20:24:12.625Z,9.33
2023-04-12T20:26:46.607Z,9.31
2023-04-12T20:29:16.104Z,9.29
2023-04-12T20:31:47.402Z,9.25
2023-04-12T20:34:17.801Z,9.22
2023-04-12T20:36:47.344Z,9.21
2023-04-12T20:39:15.612Z,9.21
2023-04-12T20:41:50.288Z,9.22
2023-04-12T20:44:19.632Z,9.23
2023-04-12T20:46:51.302Z,9.24
2023-04-12T20:49:20.697Z,9.24
2023-04-12T20:51:50.204Z,9.23
2023-04-12T20:54:19.890Z,9.22
2023-04-12T20:56:48.212Z,9.19
2023-04-12T20:59:24.316Z,9.17
2023-04-12T21:01:53.216Z,9.13
2023-04-12T21:04:22.603Z,9.10
2023-04-12T21:06:55.770Z,9.07
2023-04-12T21:09:24.655Z,9.04
2023-04-12T21:11:53.591Z,8.99
2023-04-12T21:14:22.293Z,8.93
2023-04-12T21:16:51.324Z,8.89
2023-04-12T21:19:20.132Z,8.86
2023-04-12T21:21:51.344Z,8.81
2023-04-12T21:24:21.802Z,8.77
2023-04-12T21:26:56.833Z,8.75
2023-04-12T21:29:31.990Z,8.73
2023-04-12T21:32:02.494Z,8.72
2023-04-12T21:34:32.670Z,8.70
2023-04-12T21:37:02.007Z,8.68
2023-04-12T21:39:30.833Z,8.67
2023-04-12T21:41:59.264Z,8.67
2023-04-12T21:44:27.977Z,8.67
2023-04-12T21:46:56.493Z,8.68
2023-04-12T21:49:25.339Z,8.69
2023-04-12T21:51:57.129Z,8.69
2023-04-12T21:54:26.896Z,8.68
2023-04-12T21:56:56.312Z,8.65
2023-04-12T21:59:27.569Z,8.62
2023-04-12T22:01:56.786Z,8.62
2023-04-12T22:04:25.315Z,8.61
2023-04-12T22:06:55.801Z,8.60
2023-04-12T22:09:24.988Z,8.59
2023-04-12T22:11:54.071Z,8.57
2023-04-12T22:14:23.985Z,8.54
2023-04-12T22:16:52.591Z,8.52
2023-04-12T22:19:21.125Z,8.51
2023-04-12T22:21:52.570Z,8.49
2023-04-12T22:24:21.940Z,8.49
2023-04-12T22:26:50.408Z,8.49
2023-04-12T22:29:22.960Z,8.48
2023-04-12T22:31:51.611Z,8.47
2023-04-12T22:34:19.941Z,8.46
2023-04-12T22:36:59.051Z,8.45
2023-04-12T22:39:28.223Z,8.46
2023-04-12T22:41:57.681Z,8.44
2023-04-12T22:44:30.196Z,8.44
2023-04-12T22:46:59.434Z,8.43
2023-04-12T22:49:31.034Z,8.44
2023-04-12T22:52:00.667Z,8.45
2023-04-12T22:54:29.026Z,8.44
2023-04-12T22:56:58.825Z,8.43
2023-04-12T22:59:29.126Z,8.41
2023-04-12T23:01:57.647Z,8.39
2023-04-12T23:04:26.118Z,8.38
2023-04-12T23:06:55.357Z,8.37
2023-04-12T23:09:23.977Z,8.35
2023-04-12T23:11:52.769Z,8.33
2023-04-12T23:14:24.046Z,8.32
2023-04-12T23:16:52.435Z,8.31
2023-04-12T23:19:20.828Z,8.29
2023-04-12T23:21:49.487Z,8.28
2023-04-12T23:24:18.668Z,8.27
2023-04-12T23:26:47.309Z,8.27
2023-04-12T23:29:15.966Z,8.28
2023-04-12T23:31:47.705Z,8.30
2023-04-12T23:34:16.735Z,8.31
2023-04-12T23:36:45.380Z,8.33
2023-04-12T23:39:13.793Z,8.35
2023-04-12T23:41:42.416Z,8.36
2023-04-12T23:44:12.543Z,8.32
2023-04-12T23:46:43.195Z,8.30
2023-04-12T23:49:12.557Z,8.29
2023-04-12T23:51:48.177Z,8.26
2023-04-12T23:54:17.840Z,8.23
2023-04-12T23:56:46.677Z,8.18
2023-04-12T23:59:16.008Z,8.16
